createdAt,value
2019-06-20T00:02:58.180Z,18.18
2019-06-20T00:07:59.568Z,18.06
2019-06-20T00:13:01.116Z,17.97
2019-06-20T00:18:02.582Z,17.93
2019-06-20T00:23:04.034Z,17.89
2019-06-20T00:28:05.528Z,17.84
2019-06-20T00:33:07.019Z,17.78
2019-06-20T00:38:08.543Z,17.75
2019-06-20T00:43:17.569Z,17.72
2019-06-20T00:48:13.592Z,17.69
2019-06-20T00:53:14.866Z,17.58
2019-06-20T00:58:16.272Z,17.46
2019-06-20T01:03:17.551Z,17.37
2019-06-20T01:08:18.964Z,17.34
2019-06-20T01:13:33.261Z,17.35
2019-06-20T01:18:23.796Z,17.44
2019-06-20T01:23:25.295Z,17.43
2019-06-20T01:28:26.898Z,17.41
2019-06-20T01:33:28.414Z,17.43
2019-06-20T01:38:29.789Z,17.50
2019-06-20T01:43:31.278Z,17.55
2019-06-20T01:48:32.787Z,17.55
2019-06-20T01:53:34.188Z,17.52
2019-06-20T01:58:35.746Z,17.50
2019-06-20T02:03:37.133Z,17.45
2019-06-20T02:08:38.645Z,17.42
2019-06-20T02:13:40.173Z,17.43
2019-06-20T02:18:41.706Z,17.40
2019-06-20T02:23:43.218Z,17.39
2019-06-20T02:28:45.023Z,17.37
2019-06-20T02:33:46.485Z,17.37
2019-06-20T02:38:47.896Z,17.37
2019-06-20T02:43:49.317Z,17.44
2019-06-20T02:48:50.755Z,17.47
2019-06-20T02:53:52.197Z,17.45
2019-06-20T02:58:53.489Z,17.43
2019-06-20T03:03:54.973Z,17.39
2019-06-20T03:08:56.484Z,17.48
2019-06-20T03:13:57.884Z,17.53
2019-06-20T03:18:59.401Z,17.59
2019-06-20T03:24:00.874Z,17.62
2019-06-20T03:29:02.401Z,17.68
2019-06-20T03:34:03.695Z,17.71
2019-06-20T03:39:05.712Z,17.72
2019-06-20T03:44:06.987Z,18.08
2019-06-20T03:49:08.507Z,17.84
2019-06-20T03:54:09.974Z,17.84
2019-06-20T03:59:11.463Z,17.85
2019-06-20T04:04:13.032Z,17.90
2019-06-20T04:09:14.387Z,17.93
2019-06-20T04:14:15.910Z,17.97
2019-06-20T04:19:17.415Z,18.03
2019-06-20T04:24:18.920Z,18.03
2019-06-20T04:29:20.333Z,18.06
2019-06-20T04:34:21.878Z,18.08
2019-06-20T04:39:25.454Z,18.03
2019-06-20T04:44:26.868Z,18.03
2019-06-20T04:49:28.350Z,18.01
2019-06-20T04:54:29.826Z,18.03
2019-06-20T04:59:31.424Z,18.18
2019-06-20T05:04:33.010Z,18.40
2019-06-20T05:09:34.639Z,18.15
2019-06-20T05:14:36.056Z,18.11
2019-06-20T05:19:37.690Z,18.44
2019-06-20T05:24:39.228Z,18.50
2019-06-20T05:29:40.750Z,18.66
2019-06-20T05:34:42.311Z,18.51
2019-06-20T05:39:43.743Z,18.68
2019-06-20T05:44:45.308Z,18.71
2019-06-20T05:49:46.789Z,18.66
2019-06-20T05:54:48.383Z,19.12
2019-06-20T05:59:49.763Z,19.96
2019-06-20T06:04:51.273Z,19.71
2019-06-20T06:09:52.802Z,19.54
2019-06-20T06:14:54.347Z,19.19
2019-06-20T06:19:55.819Z,19.12
2019-06-20T06:24:57.421Z,19.13
2019-06-20T06:29:59.021Z,19.07
2019-06-20T06:35:00.585Z,19.06
2019-06-20T06:40:02.746Z,19.41
2019-06-20T06:45:04.843Z,19.33
2019-06-20T06:50:06.260Z,19.18
2019-06-20T06:55:07.900Z,18.86
2019-06-20T07:00:09.711Z,18.62
2019-06-20T07:05:11.114Z,18.76
2019-06-20T07:10:12.635Z,19.13
2019-06-20T07:15:14.180Z,19.50
2019-06-20T07:20:15.642Z,19.40
2019-06-20T07:25:17.237Z,19.69
2019-06-20T07:30:19.196Z,20.05
2019-06-20T07:35:20.844Z,19.98
2019-06-20T07:40:22.362Z,19.82
2019-06-20T07:45:27.330Z,19.66
2019-06-20T07:50:29.143Z,19.53
2019-06-20T07:55:30.761Z,19.69
2019-06-20T08:00:33.302Z,19.76
2019-06-20T08:05:34.855Z,19.64
2019-06-20T08:10:36.431Z,19.63
2019-06-20T08:15:37.967Z,19.57
2019-06-20T08:20:39.520Z,19.49
2019-06-20T08:25:41.061Z,19.75
2019-06-20T08:30:45.357Z,19.92
2019-06-20T08:35:46.870Z,19.65
2019-06-20T08:40:48.383Z,19.90
2019-06-20T08:45:49.878Z,19.83
2019-06-20T08:50:51.487Z,19.84
2019-06-20T08:55:52.990Z,19.73
2019-06-20T09:00:55.933Z,19.42
2019-06-20T09:05:58.378Z,19.50
2019-06-20T09:10:59.973Z,19.64
2019-06-20T09:16:03.018Z,19.54
2019-06-20T09:21:04.823Z,19.47
2019-06-20T09:26:06.455Z,19.51
2019-06-20T09:31:08.225Z,20.26
2019-06-20T09:36:10.027Z,20.81
2019-06-20T09:41:11.539Z,21.20
2019-06-20T09:46:13.198Z,21.34
2019-06-20T09:51:14.748Z,21.05
2019-06-20T09:56:16.298Z,21.40
2019-06-20T10:01:18.063Z,22.12
2019-06-20T10:06:19.624Z,22.33
2019-06-20T10:11:21.102Z,22.04
2019-06-20T10:16:22.617Z,22.22
2019-06-20T10:21:24.188Z,22.28
2019-06-20T10:26:26.049Z,22.05
2019-06-20T10:31:27.566Z,21.39
2019-06-20T10:36:29.224Z,21.01
2019-06-20T10:41:30.848Z,21.58
2019-06-20T10:46:32.433Z,21.94
2019-06-20T10:51:34.983Z,22.05
2019-06-20T10:56:36.519Z,21.58
2019-06-20T11:01:38.108Z,22.15
2019-06-20T11:06:41.342Z,22.68
2019-06-20T11:11:43.112Z,22.86
2019-06-20T11:16:45.211Z,22.91
2019-06-20T11:21:50.784Z,22.58
2019-06-20T11:26:52.406Z,22.31
2019-06-20T11:31:54.076Z,23.08
2019-06-20T11:36:55.517Z,23.13
2019-06-20T11:41:57.006Z,22.91
2019-06-20T11:46:58.718Z,22.91
2019-06-20T11:52:00.189Z,22.75
2019-06-20T11:57:01.740Z,23.10
2019-06-20T12:02:03.278Z,23.63
2019-06-20T12:07:04.780Z,23.68
2019-06-20T12:12:06.344Z,23.55
2019-06-20T12:17:07.854Z,23.48
2019-06-20T12:22:09.382Z,23.32
2019-06-20T12:27:10.895Z,23.54
2019-06-20T12:32:12.471Z,23.73
2019-06-20T12:37:14.008Z,23.81
2019-06-20T12:42:15.521Z,23.81
2019-06-20T12:47:16.995Z,23.92
2019-06-20T12:52:18.434Z,23.63
2019-06-20T12:57:19.974Z,23.37
2019-06-20T13:02:21.483Z,23.82
2019-06-20T13:07:23.055Z,24.25
2019-06-20T13:12:24.675Z,24.20
2019-06-20T13:17:26.196Z,24.66
2019-06-20T13:22:27.595Z,24.71
2019-06-20T13:27:29.151Z,24.57
2019-06-20T13:32:30.654Z,24.13
2019-06-20T13:37:34.315Z,24.42
2019-06-20T13:42:35.837Z,24.19
2019-06-20T13:47:37.362Z,23.60
2019-06-20T13:52:42.811Z,23.19
2019-06-20T13:57:43.000Z,22.97
2019-06-20T14:02:46.892Z,23.22
2019-06-20T14:07:51.850Z,23.49
2019-06-20T14:12:52.002Z,22.94
2019-06-20T14:17:53.855Z,22.89
2019-06-20T14:22:56.658Z,22.87
2019-06-20T14:27:58.350Z,22.50
2019-06-20T14:33:01.609Z,22.87
2019-06-20T14:38:05.808Z,23.48
2019-06-20T14:43:07.338Z,24.05
2019-06-20T14:48:08.932Z,23.39
2019-06-20T14:53:10.484Z,23.45
2019-06-20T14:58:11.786Z,23.53
2019-06-20T15:03:13.366Z,23.48
2019-06-20T15:08:14.939Z,23.22
2019-06-20T15:13:16.461Z,23.28
2019-06-20T15:18:17.964Z,23.36
2019-06-20T15:23:19.374Z,23.35
2019-06-20T15:28:20.863Z,23.34
2019-06-20T15:33:23.532Z,23.85
2019-06-20T15:38:25.001Z,23.83
2019-06-20T15:43:26.506Z,23.77
2019-06-20T15:48:29.058Z,23.69
2019-06-20T15:53:30.548Z,23.82
2019-06-20T15:58:32.123Z,23.60
2019-06-20T16:03:33.608Z,23.57
2019-06-20T16:08:35.036Z,23.15
2019-06-20T16:13:36.522Z,23.47
2019-06-20T16:18:38.261Z,23.89
2019-06-20T16:23:39.787Z,23.55
2019-06-20T16:28:41.306Z,23.02
2019-06-20T16:33:42.794Z,22.94
2019-06-20T16:38:44.411Z,22.30
2019-06-20T16:43:45.975Z,22.42
2019-06-20T16:48:47.597Z,22.46
2019-06-20T16:53:49.128Z,22.41
2019-06-20T16:58:50.647Z,22.16
2019-06-20T17:03:52.149Z,21.93
2019-06-20T17:08:53.710Z,21.58
2019-06-20T17:13:55.103Z,21.79
2019-06-20T17:18:56.678Z,22.08
2019-06-20T17:23:58.245Z,22.58
2019-06-20T17:28:59.509Z,22.60
2019-06-20T17:34:01.009Z,23.94
2019-06-20T17:39:04.469Z,23.48
2019-06-20T17:44:05.858Z,22.80
2019-06-20T17:49:07.136Z,23.76
2019-06-20T17:54:08.486Z,24.11
2019-06-20T17:59:09.919Z,22.93
2019-06-20T18:04:14.038Z,22.05
2019-06-20T18:09:14.901Z,21.78
2019-06-20T18:14:16.440Z,21.87
2019-06-20T18:19:17.797Z,21.73
2019-06-20T18:24:21.317Z,21.69
2019-06-20T18:29:22.763Z,21.39
2019-06-20T18:34:30.290Z,21.26
2019-06-20T18:39:31.010Z,21.39
2019-06-20T18:44:32.546Z,21.15
2019-06-20T18:49:34.061Z,21.14
2019-06-20T18:54:35.778Z,21.16
2019-06-20T18:59:37.475Z,21.30
2019-06-20T19:04:48.004Z,21.40
2019-06-20T19:09:42.464Z,21.62
2019-06-20T19:14:44.032Z,21.66
2019-06-20T19:19:45.593Z,21.34
2019-06-20T19:24:47.325Z,21.14
2019-06-20T19:29:49.772Z,20.84
2019-06-20T19:35:01.334Z,20.62
2019-06-20T19:39:55.124Z,20.14
2019-06-20T19:44:56.530Z,19.89
2019-06-20T19:49:58.019Z,19.64
2019-06-20T19:54:59.546Z,19.35
2019-06-20T20:00:01.095Z,19.04
2019-06-20T20:05:18.426Z,18.81
2019-06-20T20:10:10.038Z,18.63
2019-06-20T20:15:11.584Z,18.49
2019-06-20T20:20:13.120Z,18.37
2019-06-20T20:25:14.699Z,18.42
2019-06-20T20:30:16.265Z,18.10
2019-06-20T20:35:31.535Z,17.91
2019-06-20T20:40:21.226Z,17.79
2019-06-20T20:45:22.736Z,17.64
2019-06-20T20:50:24.295Z,17.55
2019-06-20T20:55:25.905Z,17.45
2019-06-20T21:00:33.250Z,17.37
2019-06-20T21:05:50.437Z,17.24
2019-06-20T21:10:38.254Z,17.15
2019-06-20T21:15:39.669Z,17.05
2019-06-20T21:20:41.209Z,16.98
2019-06-20T21:25:42.706Z,16.92
2019-06-20T21:30:44.245Z,16.86
2019-06-20T21:35:45.648Z,16.83
2019-06-20T21:40:47.201Z,16.77
2019-06-20T21:45:48.702Z,16.72
2019-06-20T21:50:50.291Z,16.65
2019-06-20T21:55:51.901Z,16.59
2019-06-20T22:00:54.513Z,16.53
2019-06-20T22:05:56.098Z,16.42
2019-06-20T22:10:57.496Z,16.35
2019-06-20T22:15:59.042Z,16.27
2019-06-20T22:21:00.681Z,16.21
2019-06-20T22:26:02.298Z,16.13
2019-06-20T22:31:03.829Z,16.01
2019-06-20T22:36:05.372Z,15.95
2019-06-20T22:41:06.764Z,15.85
2019-06-20T22:46:08.183Z,15.78
2019-06-20T22:51:09.819Z,15.74
2019-06-20T22:56:11.329Z,15.66
2019-06-20T23:01:12.617Z,15.59
2019-06-20T23:06:14.125Z,15.55
2019-06-20T23:11:15.607Z,15.53
2019-06-20T23:16:17.146Z,15.47
2019-06-20T23:21:18.671Z,15.44
2019-06-20T23:26:20.197Z,15.41
2019-06-20T23:31:21.733Z,15.37
2019-06-20T23:36:23.368Z,15.35
2019-06-20T23:41:24.884Z,15.31
2019-06-20T23:46:26.281Z,15.26
2019-06-20T23:51:27.807Z,15.22
2019-06-20T23:56:29.323Z,15.13
